createdAt,value
2022-11-14T00:00:46.405Z,62.94
2022-11-14T00:03:31.851Z,62.90
2022-11-14T00:06:17.918Z,62.42
2022-11-14T00:09:03.488Z,62.72
2022-11-14T00:11:49.065Z,62.63
2022-11-14T00:14:34.623Z,62.61
2022-11-14T00:17:20.264Z,62.83
2022-11-14T00:20:08.499Z,62.33
2022-11-14T00:22:54.097Z,62.27
2022-11-14T00:25:39.718Z,62.69
2022-11-14T00:28:25.261Z,61.95
2022-11-14T00:31:11.676Z,62.16
2022-11-14T00:33:57.719Z,62.31
2022-11-14T00:36:43.083Z,62.44
2022-11-14T00:39:28.633Z,62.35
2022-11-14T00:42:14.328Z,62.42
2022-11-14T00:45:00.011Z,62.86
2022-11-14T00:47:45.510Z,63.00
2022-11-14T00:50:31.369Z,62.43
2022-11-14T00:53:16.897Z,62.66
2022-11-14T00:56:03.386Z,62.93
2022-11-14T00:58:49.286Z,63.69
2022-11-14T01:01:34.603Z,63.41
2022-11-14T01:04:20.308Z,63.80
2022-11-14T01:07:06.018Z,63.73
2022-11-14T01:09:51.842Z,63.72
2022-11-14T01:12:37.095Z,63.90
2022-11-14T01:15:22.887Z,64.05
2022-11-14T01:18:11.481Z,64.01
2022-11-14T01:20:58.096Z,63.63
2022-11-14T01:23:43.543Z,63.29
2022-11-14T01:26:29.472Z,63.08
2022-11-14T01:29:15.572Z,62.82
2022-11-14T01:32:01.714Z,63.18
2022-11-14T01:34:47.434Z,62.66
2022-11-14T01:37:32.690Z,62.36
2022-11-14T01:40:18.637Z,62.54
2022-11-14T01:43:19.794Z,62.21
2022-11-14T01:46:14.629Z,61.78
2022-11-14T01:49:18.694Z,61.66
2022-11-14T01:52:29.378Z,61.04
2022-11-14T01:55:14.678Z,61.38
2022-11-14T01:58:00.844Z,61.13
2022-11-14T02:00:46.734Z,61.46
2022-11-14T02:03:36.440Z,60.81
2022-11-14T02:06:26.707Z,61.22
2022-11-14T02:09:12.997Z,61.25
2022-11-14T02:12:01.414Z,59.48
2022-11-14T02:14:52.283Z,58.48
2022-11-14T02:17:37.914Z,59.04
2022-11-14T02:20:32.712Z,58.03
2022-11-14T02:23:30.951Z,56.76
2022-11-14T02:26:19.157Z,57.24
2022-11-14T02:29:06.276Z,56.04
2022-11-14T02:31:52.083Z,56.59
2022-11-14T02:34:37.477Z,56.97
2022-11-14T02:37:22.765Z,56.95
2022-11-14T02:40:09.606Z,56.72
2022-11-14T02:42:55.072Z,55.87
2022-11-14T02:45:41.298Z,56.23
2022-11-14T02:48:26.879Z,56.00
2022-11-14T02:51:12.228Z,55.86
2022-11-14T02:53:58.063Z,55.68
2022-11-14T02:56:43.515Z,55.87
2022-11-14T02:59:29.361Z,55.56
2022-11-14T03:02:14.898Z,55.11
2022-11-14T03:05:00.826Z,55.48
2022-11-14T03:07:55.011Z,56.27
2022-11-14T03:10:40.731Z,56.02
2022-11-14T03:13:29.755Z,55.70
2022-11-14T03:16:15.484Z,55.08
2022-11-14T03:19:02.601Z,54.93
2022-11-14T03:21:48.095Z,55.62
2022-11-14T03:24:33.815Z,55.18
2022-11-14T03:27:20.939Z,55.77
2022-11-14T03:30:07.351Z,55.04
2022-11-14T03:32:53.026Z,55.18
2022-11-14T03:35:43.317Z,55.21
2022-11-14T03:38:29.367Z,54.52
2022-11-14T03:41:15.246Z,54.19
2022-11-14T03:44:00.859Z,54.88
2022-11-14T03:46:46.267Z,53.67
2022-11-14T03:49:31.856Z,54.21
2022-11-14T03:52:17.491Z,54.58
2022-11-14T03:55:03.188Z,54.70
2022-11-14T03:57:48.853Z,54.81
2022-11-14T04:00:34.180Z,54.33
2022-11-14T04:03:19.970Z,54.43
2022-11-14T04:06:05.457Z,53.90
2022-11-14T04:08:52.048Z,54.28
2022-11-14T04:11:37.827Z,53.82
2022-11-14T04:14:23.423Z,53.82
2022-11-14T04:17:09.203Z,53.92
2022-11-14T04:19:55.126Z,54.06
2022-11-14T04:22:41.487Z,53.41
2022-11-14T04:25:27.093Z,53.19
2022-11-14T04:28:13.902Z,53.71
2022-11-14T04:31:00.601Z,53.35
2022-11-14T04:33:46.127Z,53.67
2022-11-14T04:36:31.825Z,53.73
2022-11-14T04:39:18.384Z,53.85
2022-11-14T04:42:04.412Z,53.73
2022-11-14T04:44:50.138Z,53.59
2022-11-14T04:47:35.966Z,54.08
2022-11-14T04:50:21.671Z,53.81
2022-11-14T04:53:07.240Z,52.97
2022-11-14T04:55:53.102Z,53.18
2022-11-14T04:58:38.550Z,53.54
2022-11-14T05:01:24.132Z,53.22
2022-11-14T05:04:09.480Z,52.89
2022-11-14T05:06:55.094Z,53.28
2022-11-14T05:09:40.919Z,52.89
2022-11-14T05:12:26.463Z,53.61
2022-11-14T05:15:12.057Z,52.85
2022-11-14T05:17:58.896Z,52.88
2022-11-14T05:20:44.616Z,52.84
2022-11-14T05:23:30.303Z,52.89
2022-11-14T05:26:18.057Z,53.17
2022-11-14T05:29:03.778Z,52.82
2022-11-14T05:31:49.214Z,53.38
2022-11-14T05:34:34.862Z,53.50
2022-11-14T05:37:20.624Z,53.26
2022-11-14T05:40:06.898Z,53.17
2022-11-14T05:42:55.565Z,53.56
2022-11-14T05:45:41.135Z,53.49
2022-11-14T05:48:27.165Z,53.34
2022-11-14T05:51:13.637Z,53.36
2022-11-14T05:53:59.182Z,53.11
2022-11-14T05:56:44.942Z,53.35
2022-11-14T05:59:30.521Z,53.17
2022-11-14T06:02:16.234Z,53.31
2022-11-14T06:05:01.897Z,53.09
2022-11-14T06:07:47.438Z,53.22
2022-11-14T06:10:35.765Z,53.72
2022-11-14T06:13:23.982Z,53.78
2022-11-14T06:16:18.854Z,53.71
2022-11-14T06:19:05.442Z,54.08
2022-11-14T06:21:51.386Z,54.29
2022-11-14T06:24:37.126Z,53.86
2022-11-14T06:27:22.768Z,54.23
2022-11-14T06:30:09.231Z,54.29
2022-11-14T06:33:01.288Z,53.89
2022-11-14T06:35:46.789Z,53.87
2022-11-14T06:38:34.213Z,53.69
2022-11-14T06:41:21.888Z,53.90
2022-11-14T06:44:08.901Z,54.00
2022-11-14T06:46:57.183Z,53.51
2022-11-14T06:49:43.107Z,53.55
2022-11-14T06:52:31.525Z,53.39
2022-11-14T06:55:22.371Z,53.25
2022-11-14T06:58:11.052Z,53.43
2022-11-14T07:00:57.161Z,53.16
2022-11-14T07:03:43.809Z,53.41
2022-11-14T07:06:31.186Z,53.18
2022-11-14T07:09:16.824Z,53.17
2022-11-14T07:12:04.778Z,53.16
2022-11-14T07:14:50.338Z,53.19
2022-11-14T07:17:37.171Z,52.56
2022-11-14T07:20:22.845Z,52.85
2022-11-14T07:23:08.217Z,52.74
2022-11-14T07:25:54.407Z,52.64
2022-11-14T07:28:42.738Z,52.76
2022-11-14T07:31:28.553Z,52.80
2022-11-14T07:34:14.202Z,52.81
2022-11-14T07:36:59.910Z,52.58
2022-11-14T07:39:46.208Z,52.25
2022-11-14T07:42:31.751Z,52.55
2022-11-14T07:45:17.261Z,52.34
2022-11-14T07:48:03.346Z,51.98
2022-11-14T07:50:48.877Z,52.15
2022-11-14T07:53:34.805Z,51.87
2022-11-14T07:56:20.437Z,51.24
2022-11-14T07:59:06.502Z,51.21
2022-11-14T08:01:52.373Z,51.34
2022-11-14T08:04:37.979Z,51.38
2022-11-14T08:07:23.568Z,50.69
2022-11-14T08:10:11.549Z,50.88
2022-11-14T08:13:29.804Z,50.73
2022-11-14T08:16:13.285Z,51.17
2022-11-14T08:18:59.332Z,50.57
2022-11-14T08:21:45.038Z,48.98
2022-11-14T08:24:30.544Z,47.30
2022-11-14T08:27:16.525Z,46.24
2022-11-14T08:30:02.344Z,42.38
2022-11-14T08:32:48.453Z,38.67
2022-11-14T08:35:34.337Z,35.18
2022-11-14T08:38:19.832Z,33.56
2022-11-14T08:41:05.928Z,32.11
2022-11-14T08:43:51.502Z,32.56
2022-11-14T08:46:37.855Z,32.13
2022-11-14T08:49:24.834Z,32.55
2022-11-14T08:52:16.328Z,30.79
2022-11-14T08:55:03.172Z,31.00
2022-11-14T08:57:50.145Z,32.75
2022-11-14T09:00:36.916Z,32.92
2022-11-14T09:03:23.338Z,33.36
2022-11-14T09:06:08.996Z,35.03
2022-11-14T09:08:55.719Z,35.39
2022-11-14T09:11:41.570Z,36.42
2022-11-14T09:14:27.645Z,37.27
2022-11-14T09:17:13.743Z,38.19
2022-11-14T09:19:59.247Z,39.11
2022-11-14T09:22:45.207Z,39.23
2022-11-14T09:25:31.153Z,39.79
2022-11-14T09:28:16.961Z,39.84
2022-11-14T09:31:04.249Z,40.18
2022-11-14T09:33:49.833Z,40.47
2022-11-14T09:36:36.056Z,41.22
2022-11-14T09:39:21.466Z,40.76
2022-11-14T09:42:22.134Z,40.54
2022-11-14T09:45:16.371Z,40.84
2022-11-14T09:48:26.032Z,40.41
2022-11-14T09:51:22.467Z,40.65
2022-11-14T09:54:29.656Z,40.46
2022-11-14T09:57:28.680Z,39.74
2022-11-14T10:00:23.180Z,39.51
2022-11-14T10:03:28.677Z,40.53
2022-11-14T10:06:22.897Z,40.79
2022-11-14T10:09:36.035Z,41.16
2022-11-14T10:12:37.977Z,40.43
2022-11-14T10:15:37.153Z,40.42
2022-11-14T10:18:33.526Z,41.04
2022-11-14T10:21:43.225Z,40.73
2022-11-14T10:24:58.967Z,40.69
2022-11-14T10:28:24.833Z,40.00
2022-11-14T10:31:47.668Z,38.54
2022-11-14T10:34:46.634Z,38.33
2022-11-14T10:37:37.981Z,36.32
2022-11-14T10:40:49.131Z,37.26
2022-11-14T10:43:43.525Z,36.71
2022-11-14T10:46:41.374Z,36.05
2022-11-14T10:49:30.837Z,36.68
2022-11-14T10:52:20.904Z,36.41
2022-11-14T10:55:24.813Z,35.81
2022-11-14T10:58:24.121Z,35.93
2022-11-14T11:01:41.939Z,37.38
2022-11-14T11:04:33.300Z,37.08
2022-11-14T11:07:41.198Z,37.38
2022-11-14T11:10:45.656Z,37.56
2022-11-14T11:13:48.453Z,37.61
2022-11-14T11:16:34.338Z,38.51
2022-11-14T11:19:25.950Z,38.82
2022-11-14T11:22:38.645Z,38.83
2022-11-14T11:25:29.682Z,39.46
2022-11-14T11:28:20.942Z,39.68
2022-11-14T11:31:11.325Z,39.38
2022-11-14T11:34:03.412Z,40.50
2022-11-14T11:37:04.210Z,39.98
2022-11-14T11:39:53.134Z,39.72
2022-11-14T11:43:36.773Z,40.97
2022-11-14T11:45:54.790Z,41.15
2022-11-14T11:48:41.081Z,40.53
2022-11-14T11:51:27.959Z,41.07
2022-11-14T11:54:18.092Z,41.19
2022-11-14T11:57:13.987Z,41.67
2022-11-14T12:00:21.952Z,41.59
2022-11-14T12:03:14.384Z,41.81
2022-11-14T12:06:20.505Z,41.98
2022-11-14T12:09:26.823Z,42.77
2022-11-14T12:12:34.669Z,42.74
2022-11-14T12:15:55.032Z,42.97
2022-11-14T12:18:59.256Z,43.35
2022-11-14T12:22:04.001Z,43.83
2022-11-14T12:25:18.930Z,44.21
2022-11-14T12:28:25.515Z,44.20
2022-11-14T12:31:17.123Z,43.50
2022-11-14T12:34:45.691Z,43.79
2022-11-14T12:37:37.752Z,44.56
2022-11-14T12:40:25.947Z,44.21
2022-11-14T12:43:41.875Z,44.40
2022-11-14T12:46:27.666Z,44.74
2022-11-14T12:49:48.993Z,44.92
2022-11-14T12:52:40.730Z,45.58
2022-11-14T12:55:26.241Z,45.87
2022-11-14T12:58:13.834Z,46.04
2022-11-14T13:01:04.826Z,45.67
2022-11-14T13:04:08.341Z,45.96
2022-11-14T13:07:21.006Z,46.06
2022-11-14T13:10:27.983Z,46.08
2022-11-14T13:13:36.564Z,45.88
2022-11-14T13:16:44.303Z,46.09
2022-11-14T13:19:48.259Z,46.74
2022-11-14T13:22:47.117Z,46.57
2022-11-14T13:25:32.757Z,46.67
2022-11-14T13:28:36.634Z,46.83
2022-11-14T13:31:35.036Z,46.92
2022-11-14T13:34:49.896Z,47.14
2022-11-14T13:37:47.937Z,47.31
2022-11-14T13:41:04.265Z,47.49
2022-11-14T13:44:04.810Z,47.73
2022-11-14T13:47:02.371Z,47.48
2022-11-14T13:50:05.854Z,47.65
2022-11-14T13:52:51.587Z,47.96
2022-11-14T13:56:15.077Z,47.48
2022-11-14T13:59:31.323Z,48.05
2022-11-14T14:02:52.943Z,48.29
2022-11-14T14:06:11.949Z,48.39
2022-11-14T14:09:08.498Z,48.49
2022-11-14T14:12:03.033Z,49.03
2022-11-14T14:15:17.966Z,50.17
2022-11-14T14:18:03.764Z,48.83
2022-11-14T14:21:05.647Z,49.22
2022-11-14T14:24:17.979Z,48.72
2022-11-14T14:27:24.789Z,49.13
2022-11-14T14:30:14.218Z,49.15
2022-11-14T14:33:11.331Z,49.63
2022-11-14T14:35:56.452Z,49.27
2022-11-14T14:38:42.365Z,49.41
2022-11-14T14:41:31.900Z,49.56
2022-11-14T14:44:37.176Z,49.54
2022-11-14T14:47:42.165Z,49.23
2022-11-14T14:50:33.997Z,49.29
2022-11-14T14:53:21.277Z,49.27
2022-11-14T14:56:18.613Z,49.49
2022-11-14T14:59:18.468Z,49.61
2022-11-14T15:02:04.598Z,49.83
2022-11-14T15:04:50.296Z,49.64
2022-11-14T15:07:39.599Z,49.94
2022-11-14T15:10:29.752Z,50.00
2022-11-14T15:13:17.984Z,49.41
2022-11-14T15:16:04.573Z,49.50
2022-11-14T15:18:52.249Z,49.40
2022-11-14T15:21:37.601Z,49.06
2022-11-14T15:24:23.826Z,49.21
2022-11-14T15:27:19.422Z,49.17
2022-11-14T15:30:19.380Z,48.98
2022-11-14T15:33:07.395Z,48.83
2022-11-14T15:36:17.973Z,48.78
2022-11-14T15:39:21.713Z,48.92
2022-11-14T15:42:28.271Z,48.86
2022-11-14T15:45:23.013Z,48.91
2022-11-14T15:48:18.365Z,48.31
2022-11-14T15:51:04.614Z,48.30
2022-11-14T15:53:52.232Z,48.17
2022-11-14T15:56:38.276Z,48.21
2022-11-14T15:59:25.492Z,48.12
2022-11-14T16:02:17.232Z,48.29
2022-11-14T16:05:04.500Z,48.31
2022-11-14T16:07:50.291Z,48.41
2022-11-14T16:10:35.974Z,47.87
2022-11-14T16:13:22.283Z,48.10
2022-11-14T16:16:08.882Z,47.72
2022-11-14T16:18:54.693Z,47.72
2022-11-14T16:21:40.724Z,47.68
2022-11-14T16:24:31.081Z,47.84
2022-11-14T16:27:18.877Z,47.79
2022-11-14T16:30:05.020Z,47.57
2022-11-14T16:32:51.795Z,47.41
2022-11-14T16:35:37.514Z,46.95
2022-11-14T16:38:23.032Z,47.64
2022-11-14T16:41:09.631Z,47.79
2022-11-14T16:43:56.795Z,47.13
2022-11-14T16:46:44.176Z,47.63
2022-11-14T16:49:29.648Z,47.37
2022-11-14T16:52:17.189Z,47.59
2022-11-14T16:55:04.490Z,47.81
2022-11-14T16:57:49.946Z,47.59
2022-11-14T17:00:37.745Z,47.54
2022-11-14T17:03:23.380Z,47.48
2022-11-14T17:06:10.659Z,47.20
2022-11-14T17:08:57.607Z,47.16
2022-11-14T17:11:44.850Z,46.67
2022-11-14T17:14:30.669Z,47.06
2022-11-14T17:17:16.152Z,47.17
2022-11-14T17:20:01.957Z,47.09
2022-11-14T17:22:47.265Z,46.58
2022-11-14T17:25:33.053Z,46.98
2022-11-14T17:28:18.485Z,46.79
2022-11-14T17:31:10.901Z,47.11
2022-11-14T17:33:59.656Z,46.38
2022-11-14T17:36:45.352Z,47.16
2022-11-14T17:39:31.361Z,46.77
2022-11-14T17:42:16.952Z,46.88
2022-11-14T17:45:02.735Z,46.25
2022-11-14T17:47:48.283Z,46.76
2022-11-14T17:50:37.602Z,46.29
2022-11-14T17:53:23.468Z,46.68
2022-11-14T17:56:15.490Z,46.66
2022-11-14T17:59:01.476Z,46.43
2022-11-14T18:01:47.640Z,46.63
2022-11-14T18:04:33.395Z,46.30
2022-11-14T18:07:20.724Z,46.42
2022-11-14T18:10:06.668Z,46.32
2022-11-14T18:12:52.685Z,46.13
2022-11-14T18:15:39.332Z,46.52
2022-11-14T18:18:29.070Z,46.56
2022-11-14T18:21:21.185Z,46.34
2022-11-14T18:24:14.286Z,46.14
2022-11-14T18:27:00.028Z,46.06
2022-11-14T18:29:45.455Z,46.17
2022-11-14T18:32:32.403Z,46.01
2022-11-14T18:35:18.240Z,46.37
2022-11-14T18:38:03.772Z,46.38
2022-11-14T18:40:54.332Z,46.43
2022-11-14T18:43:44.584Z,46.47
2022-11-14T18:46:37.074Z,46.05
2022-11-14T18:49:23.382Z,45.98
2022-11-14T18:52:14.205Z,46.15
2022-11-14T18:55:04.316Z,46.10
2022-11-14T18:57:49.982Z,45.79
2022-11-14T19:00:35.633Z,45.86
2022-11-14T19:03:20.977Z,45.85
2022-11-14T19:06:08.170Z,45.56
2022-11-14T19:08:58.951Z,45.70
2022-11-14T19:12:03.188Z,45.78
2022-11-14T19:14:53.161Z,45.58
2022-11-14T19:17:39.102Z,45.81
2022-11-14T19:20:25.904Z,45.01
2022-11-14T19:23:12.009Z,45.03
2022-11-14T19:26:01.616Z,45.07
2022-11-14T19:28:48.076Z,45.22
2022-11-14T19:31:34.033Z,45.07
2022-11-14T19:34:19.673Z,45.03
2022-11-14T19:37:05.356Z,44.56
2022-11-14T19:39:55.440Z,45.53
2022-11-14T19:42:40.982Z,45.20
2022-11-14T19:45:26.735Z,44.69
2022-11-14T19:48:12.738Z,45.41
2022-11-14T19:51:01.953Z,45.03
2022-11-14T19:53:48.744Z,45.60
2022-11-14T19:56:34.316Z,45.34
2022-11-14T19:59:24.192Z,45.07
2022-11-14T20:02:14.183Z,45.50
2022-11-14T20:05:00.002Z,45.63
2022-11-14T20:07:45.508Z,44.80
2022-11-14T20:10:30.775Z,44.78
2022-11-14T20:13:16.558Z,45.13
2022-11-14T20:16:11.528Z,45.16
2022-11-14T20:19:00.275Z,44.99
2022-11-14T20:21:46.020Z,45.03
2022-11-14T20:24:31.682Z,44.80
2022-11-14T20:27:17.361Z,44.80
2022-11-14T20:30:04.146Z,45.15
2022-11-14T20:32:49.868Z,44.91
2022-11-14T20:35:38.691Z,44.95
2022-11-14T20:38:24.239Z,44.91
2022-11-14T20:41:10.795Z,44.96
2022-11-14T20:43:56.900Z,44.20
2022-11-14T20:46:42.436Z,44.89
2022-11-14T20:49:27.829Z,44.95
2022-11-14T20:52:15.286Z,44.81
2022-11-14T20:55:01.171Z,44.64
2022-11-14T20:57:47.072Z,44.50
2022-11-14T21:00:32.660Z,44.47
2022-11-14T21:03:19.045Z,44.54
2022-11-14T21:06:07.264Z,44.76
2022-11-14T21:08:53.058Z,44.62
2022-11-14T21:11:38.828Z,44.03
2022-11-14T21:14:24.778Z,43.57
2022-11-14T21:17:10.331Z,43.77
2022-11-14T21:19:55.854Z,44.05
2022-11-14T21:22:41.563Z,44.15
2022-11-14T21:25:27.357Z,44.22
2022-11-14T21:28:13.027Z,44.25
2022-11-14T21:31:00.888Z,44.08
2022-11-14T21:33:48.821Z,44.01
2022-11-14T21:36:49.695Z,44.37
2022-11-14T21:39:35.140Z,44.65
2022-11-14T21:42:20.731Z,43.65
2022-11-14T21:45:07.410Z,44.22
2022-11-14T21:47:53.179Z,44.28
2022-11-14T21:50:38.794Z,43.85
2022-11-14T21:53:24.588Z,43.94
2022-11-14T21:56:25.736Z,44.00
2022-11-14T21:59:18.944Z,43.77
2022-11-14T22:02:23.276Z,44.31
2022-11-14T22:05:08.805Z,44.72
2022-11-14T22:07:54.355Z,44.15
2022-11-14T22:10:39.890Z,44.09
2022-11-14T22:13:25.180Z,43.62
2022-11-14T22:16:11.719Z,44.10
2022-11-14T22:19:04.539Z,44.36
2022-11-14T22:21:51.122Z,44.25
2022-11-14T22:24:36.963Z,44.43
2022-11-14T22:27:22.474Z,43.65
2022-11-14T22:30:09.036Z,44.15
2022-11-14T22:32:54.576Z,44.33
2022-11-14T22:35:40.646Z,43.58
2022-11-14T22:38:28.929Z,43.52
2022-11-14T22:41:16.998Z,43.75
2022-11-14T22:44:02.765Z,44.03
2022-11-14T22:46:48.437Z,44.17
2022-11-14T22:49:33.589Z,43.47
2022-11-14T22:52:19.578Z,44.33
2022-11-14T22:55:05.406Z,44.31
2022-11-14T22:57:51.252Z,44.16
2022-11-14T23:00:37.074Z,44.15
2022-11-14T23:03:23.056Z,44.00
2022-11-14T23:06:10.220Z,44.09
2022-11-14T23:08:56.310Z,44.18
2022-11-14T23:11:41.772Z,44.81
2022-11-14T23:14:27.557Z,44.43
2022-11-14T23:17:13.145Z,45.01
2022-11-14T23:19:58.818Z,44.22
2022-11-14T23:22:44.398Z,43.90
2022-11-14T23:25:29.713Z,44.25
2022-11-14T23:28:15.876Z,44.58
2022-11-14T23:31:02.196Z,44.34
2022-11-14T23:33:49.647Z,44.74
2022-11-14T23:36:35.061Z,44.11
2022-11-14T23:39:20.568Z,44.16
2022-11-14T23:42:06.548Z,44.04
2022-11-14T23:44:52.043Z,43.90
2022-11-14T23:47:37.356Z,43.92
2022-11-14T23:50:25.367Z,44.16
2022-11-14T23:53:11.783Z,43.72
2022-11-14T23:56:02.319Z,43.94
2022-11-14T23:58:48.488Z,44.21
